Terminal Aerodrome Forecast
Issued by NWS Jackson, MS

Home | Current Version | Previous Version | Text Only | Print | Product List | Glossary On
Versions: 1 2 3 4 5 6 7 8 9 10 11 12 13 14 15 16 17 18 19 20
000
FTUS44 KJAN 202320
TAFMEI
TAF
KMEI 202320Z 2100/2124 24003KT P6SM BKN120
     FM211000 00000KT 4SM BR SCT250
     FM211200 00000KT 2SM BR SCT250
     FM211400 04005KT P6SM SCT050
     FM212000 06005KT P6SM VCTS SCT050CB=

USA.gov is the U.S. government's official web portal to all federal, state and local government web resources and services.